Terminal Aerodrome Forecast
Issued by NWS

Home | Current Version | Previous Version | Text Only | Print | Product List | Glossary On
Versions: 1 2 3 4 5 6 7 8 9 10 11 12 13 14 15 16 17 18 19 20 21 22
000
FTUS43 KJKL 202100 AAA
TAFSJS
TAF AMD
KSJS 202113Z 2021/2118 27005KT P6SM VCSH SCT035 BKN200
     FM210500 VRB03KT 5SM BR BKN250
     FM211400 25008KT P6SM VCTS SCT020CB BKN040=

USA.gov is the U.S. government's official web portal to all federal, state and local government web resources and services.